createdAt,value
2023-03-18T00:00:49.306Z,8.70
2023-03-18T00:03:16.071Z,8.70
2023-03-18T00:05:42.890Z,8.70
2023-03-18T00:08:09.912Z,8.70
2023-03-18T00:10:36.700Z,8.70
2023-03-18T00:13:03.821Z,8.70
2023-03-18T00:15:30.557Z,8.70
2023-03-18T00:17:57.430Z,8.70
2023-03-18T00:20:24.100Z,8.70
2023-03-18T00:22:50.885Z,8.70
2023-03-18T00:25:17.650Z,8.60
2023-03-18T00:27:44.452Z,8.70
2023-03-18T00:30:11.846Z,8.60
2023-03-18T00:32:38.681Z,8.70
2023-03-18T00:35:05.802Z,8.60
2023-03-18T00:37:32.502Z,8.60
2023-03-18T00:40:00.721Z,8.60
2023-03-18T00:42:27.827Z,8.60
2023-03-18T00:44:54.452Z,8.60
2023-03-18T00:47:21.086Z,8.60
2023-03-18T00:49:47.841Z,8.60
2023-03-18T00:52:14.570Z,8.60
2023-03-18T00:54:41.342Z,8.50
2023-03-18T00:57:08.425Z,8.50
2023-03-18T00:59:35.145Z,8.50
2023-03-18T01:02:01.940Z,8.40
2023-03-18T01:04:29.073Z,8.30
2023-03-18T01:06:55.921Z,8.30
2023-03-18T01:09:22.588Z,8.30
2023-03-18T01:11:49.500Z,8.30
2023-03-18T01:14:16.263Z,8.30
2023-03-18T01:16:43.015Z,8.30
2023-03-18T01:19:09.684Z,8.30
2023-03-18T01:21:36.334Z,8.30
2023-03-18T01:24:03.212Z,8.30
2023-03-18T01:26:29.989Z,8.30
2023-03-18T01:28:56.661Z,8.20
2023-03-18T01:31:23.433Z,8.20
2023-03-18T01:33:50.090Z,8.20
2023-03-18T01:36:16.846Z,8.20
2023-03-18T01:38:44.020Z,8.10
2023-03-18T01:41:11.359Z,8.20
2023-03-18T01:43:41.131Z,8.20
2023-03-18T01:46:37.587Z,8.20
2023-03-18T01:49:56.388Z,8.10
2023-03-18T01:52:27.208Z,8.10
2023-03-18T01:55:09.989Z,8.00
2023-03-18T01:57:36.872Z,8.00
2023-03-18T02:00:06.051Z,8.10
2023-03-18T02:02:33.363Z,8.00
2023-03-18T02:05:04.295Z,8.10
2023-03-18T02:07:35.601Z,8.10
2023-03-18T02:12:39.240Z,8.10
2023-03-18T02:15:14.628Z,8.10
2023-03-18T02:17:46.064Z,8.10
2023-03-18T02:20:22.050Z,8.20
2023-03-18T02:23:16.660Z,8.10
2023-03-18T02:25:55.252Z,8.20
2023-03-18T02:28:26.105Z,8.10
2023-03-18T02:30:57.349Z,8.10
2023-03-18T02:33:29.999Z,8.10
2023-03-18T02:36:09.039Z,8.10
2023-03-18T02:38:44.231Z,8.20
2023-03-18T02:41:20.188Z,8.20
2023-03-18T02:43:47.712Z,8.20
2023-03-18T02:46:20.353Z,8.10
2023-03-18T02:48:48.399Z,8.10
2023-03-18T02:51:16.535Z,8.10
2023-03-18T02:53:44.706Z,8.10
2023-03-18T02:56:11.703Z,8.10
2023-03-18T02:58:38.631Z,8.10
2023-03-18T03:01:06.687Z,8.10
2023-03-18T03:03:34.833Z,8.00
2023-03-18T03:06:01.742Z,8.00
2023-03-18T03:08:29.129Z,8.00
2023-03-18T03:10:56.145Z,8.00
2023-03-18T03:13:23.812Z,8.00
2023-03-18T03:15:51.135Z,8.00
2023-03-18T03:18:17.993Z,8.00
2023-03-18T03:20:44.719Z,8.00
2023-03-18T03:23:14.969Z,8.00
2023-03-18T03:25:42.101Z,7.90
2023-03-18T03:28:09.183Z,7.90
2023-03-18T03:30:36.222Z,7.90
2023-03-18T03:33:03.039Z,7.90
2023-03-18T03:35:29.977Z,7.90
2023-03-18T03:37:56.793Z,7.80
2023-03-18T03:40:23.562Z,7.80
2023-03-18T03:42:50.503Z,7.80
2023-03-18T03:45:18.385Z,7.80
2023-03-18T03:47:45.749Z,7.80
2023-03-18T03:50:13.843Z,7.80
2023-03-18T03:52:40.810Z,7.80
2023-03-18T03:55:09.890Z,7.80
2023-03-18T03:57:36.814Z,7.80
2023-03-18T04:00:06.742Z,7.80
2023-03-18T04:02:33.896Z,7.80
2023-03-18T04:05:00.673Z,7.80
2023-03-18T04:07:27.483Z,7.80
2023-03-18T04:09:54.258Z,7.80
2023-03-18T04:12:20.925Z,7.80
2023-03-18T04:14:48.659Z,7.80
2023-03-18T04:17:16.891Z,7.80
2023-03-18T04:19:43.576Z,7.70
2023-03-18T04:22:10.265Z,7.70
2023-03-18T04:24:37.208Z,7.70
2023-03-18T04:27:04.033Z,7.70
2023-03-18T04:29:30.714Z,7.70
2023-03-18T04:31:57.397Z,7.60
2023-03-18T04:34:24.052Z,7.60
2023-03-18T04:36:51.054Z,7.60
2023-03-18T04:39:18.118Z,7.60
2023-03-18T04:41:44.775Z,7.60
2023-03-18T04:44:11.435Z,7.60
2023-03-18T04:46:38.313Z,7.60
2023-03-18T04:49:05.107Z,7.60
2023-03-18T04:51:31.802Z,7.60
2023-03-18T04:53:58.459Z,7.60
2023-03-18T04:56:25.200Z,7.60
2023-03-18T04:58:51.943Z,7.50
2023-03-18T05:01:18.821Z,7.50
2023-03-18T05:03:45.557Z,7.50
2023-03-18T05:06:21.611Z,7.50
2023-03-18T05:08:48.663Z,7.50
2023-03-18T05:11:15.511Z,7.40
2023-03-18T05:13:42.980Z,7.40
2023-03-18T05:16:10.077Z,7.40
2023-03-18T05:18:37.587Z,7.40
2023-03-18T05:21:04.985Z,7.40
2023-03-18T05:23:32.103Z,7.30
2023-03-18T05:25:58.870Z,7.30
2023-03-18T05:28:26.108Z,7.30
2023-03-18T05:30:53.250Z,7.30
2023-03-18T05:33:23.124Z,7.30
2023-03-18T05:35:50.061Z,7.30
2023-03-18T05:38:16.890Z,7.30
2023-03-18T05:40:43.582Z,7.30
2023-03-18T05:43:10.847Z,7.30
2023-03-18T05:45:40.269Z,7.30
2023-03-18T05:48:07.362Z,7.20
2023-03-18T05:50:39.680Z,7.30
2023-03-18T05:53:06.859Z,7.20
2023-03-18T05:55:34.495Z,7.20
2023-03-18T05:58:01.716Z,7.20
2023-03-18T06:00:29.304Z,7.20
2023-03-18T06:03:00.326Z,7.20
2023-03-18T06:05:27.630Z,7.20
2023-03-18T06:07:54.691Z,7.20
2023-03-18T06:10:22.607Z,7.20
2023-03-18T06:12:51.533Z,7.20
2023-03-18T06:15:18.799Z,7.20
2023-03-18T06:17:45.547Z,7.20
2023-03-18T06:20:14.428Z,7.30
2023-03-18T06:22:41.466Z,7.30
2023-03-18T06:25:08.562Z,7.20
2023-03-18T06:27:35.834Z,7.30
2023-03-18T06:30:03.219Z,7.30
2023-03-18T06:32:30.318Z,7.30
2023-03-18T06:34:57.240Z,7.30
2023-03-18T06:37:24.034Z,7.30
2023-03-18T06:39:50.929Z,7.30
2023-03-18T06:42:17.888Z,7.30
2023-03-18T06:44:44.655Z,7.20
2023-03-18T06:47:11.316Z,7.20
2023-03-18T06:49:38.030Z,7.30
2023-03-18T06:52:04.860Z,7.30
2023-03-18T06:54:31.639Z,7.30
2023-03-18T06:56:58.351Z,7.30
2023-03-18T06:59:25.069Z,7.30
2023-03-18T07:01:51.758Z,7.30
2023-03-18T07:04:18.615Z,7.40
2023-03-18T07:06:45.273Z,7.30
2023-03-18T07:09:12.003Z,7.30
2023-03-18T07:11:38.746Z,7.40
2023-03-18T07:14:05.432Z,7.40
2023-03-18T07:16:32.154Z,7.40
2023-03-18T07:18:58.915Z,7.50
2023-03-18T07:21:26.283Z,7.50
2023-03-18T07:23:52.945Z,7.60
2023-03-18T07:26:19.659Z,7.70
2023-03-18T07:28:46.339Z,7.70
2023-03-18T07:31:13.317Z,7.70
2023-03-18T07:33:40.052Z,7.80
2023-03-18T07:36:07.630Z,7.80
2023-03-18T07:38:34.392Z,7.80
2023-03-18T07:41:01.191Z,7.90
2023-03-18T07:43:28.432Z,7.90
2023-03-18T07:45:55.110Z,7.90
2023-03-18T07:48:21.919Z,8.00
2023-03-18T07:50:48.663Z,8.00
2023-03-18T07:53:16.779Z,8.00
2023-03-18T07:55:44.857Z,8.10
2023-03-18T07:58:11.595Z,8.20
2023-03-18T08:00:38.291Z,8.20
2023-03-18T08:03:05.209Z,8.30
2023-03-18T08:05:32.204Z,8.30
2023-03-18T08:07:59.026Z,8.30
2023-03-18T08:10:25.773Z,8.40
2023-03-18T08:12:53.903Z,8.40
2023-03-18T08:15:22.536Z,8.40
2023-03-18T08:17:50.364Z,8.50
2023-03-18T08:20:17.181Z,8.60
2023-03-18T08:22:43.959Z,8.60
2023-03-18T08:25:10.636Z,8.70
2023-03-18T08:27:37.373Z,8.80
2023-03-18T08:30:04.530Z,8.90
2023-03-18T08:32:31.287Z,8.90
2023-03-18T08:34:58.539Z,9.00
2023-03-18T08:37:25.313Z,9.10
2023-03-18T08:39:51.988Z,9.10
2023-03-18T08:42:18.659Z,9.20
2023-03-18T08:44:45.332Z,9.30
2023-03-18T08:47:12.234Z,9.30
2023-03-18T08:49:39.045Z,9.50
2023-03-18T08:52:11.056Z,9.60
2023-03-18T08:54:55.494Z,9.70
2023-03-18T08:57:31.709Z,9.90
2023-03-18T09:00:11.668Z,10.00
2023-03-18T09:03:02.790Z,10.20
2023-03-18T09:05:59.782Z,10.20
2023-03-18T09:08:27.686Z,10.30
2023-03-18T09:10:55.189Z,10.40
2023-03-18T09:13:22.993Z,10.40
2023-03-18T10:05:01.973Z,11.30
2023-03-18T10:07:52.866Z,11.40
2023-03-18T10:10:29.613Z,11.50
2023-03-18T10:13:11.958Z,11.60
2023-03-18T10:15:44.305Z,11.70
2023-03-18T10:18:23.943Z,11.80
2023-03-18T10:21:06.335Z,11.90
2023-03-18T10:23:42.683Z,11.90
2023-03-18T10:26:27.288Z,12.00
2023-03-18T10:29:03.240Z,12.10
2023-03-18T10:31:39.514Z,12.20
2023-03-18T10:34:14.533Z,12.30
2023-03-18T10:36:57.990Z,12.50
2023-03-18T10:39:27.689Z,12.60
2023-03-18T10:41:58.392Z,12.70
2023-03-18T10:44:32.745Z,12.80
2023-03-18T10:47:17.813Z,12.80
2023-03-18T10:50:02.864Z,12.80
2023-03-18T10:52:54.712Z,12.90
2023-03-18T10:55:27.571Z,13.00
2023-03-18T10:58:20.879Z,13.00
2023-03-18T11:00:49.180Z,13.10
2023-03-18T11:36:38.044Z,14.60
2023-03-18T11:39:14.984Z,14.70
2023-03-18T11:41:41.908Z,14.80
2023-03-18T11:44:21.887Z,14.90
2023-03-18T11:47:03.483Z,15.10
2023-03-18T11:49:33.205Z,15.10
2023-03-18T11:52:06.287Z,15.10
2023-03-18T11:54:56.095Z,15.20
2023-03-18T11:57:31.708Z,15.20
2023-03-18T12:00:17.343Z,15.10
2023-03-18T12:03:25.596Z,15.10
2023-03-18T12:06:26.868Z,15.10
2023-03-18T12:09:16.408Z,15.10
2023-03-18T12:12:15.090Z,15.20
2023-03-18T12:15:09.107Z,15.20
2023-03-18T12:18:07.921Z,15.20
2023-03-18T12:20:53.888Z,15.20
2023-03-18T12:23:21.234Z,15.20
2023-03-18T12:26:03.633Z,15.30
2023-03-18T12:28:47.954Z,15.40
2023-03-18T12:31:36.163Z,15.60
2023-03-18T12:34:04.325Z,15.80
2023-03-18T12:37:02.588Z,16.00
2023-03-18T12:39:54.872Z,16.10
2023-03-18T12:42:36.780Z,16.20
2023-03-18T12:45:12.706Z,16.40
2023-03-18T12:47:43.388Z,16.50
2023-03-18T12:50:39.537Z,16.40
2023-03-18T12:53:40.777Z,16.40
2023-03-18T12:56:18.749Z,16.50
2023-03-18T12:59:06.147Z,16.60
2023-03-18T13:01:46.338Z,16.70
2023-03-18T13:04:23.153Z,16.90
2023-03-18T13:07:15.084Z,17.10
2023-03-18T13:09:53.556Z,17.20
2023-03-18T13:12:46.561Z,17.30
2023-03-18T13:15:35.714Z,17.20
2023-03-18T13:18:22.810Z,16.90
2023-03-18T13:20:51.935Z,16.80
2023-03-18T13:27:50.107Z,17.20
2023-03-18T13:37:43.414Z,18.30
2023-03-18T13:51:01.425Z,18.90
2023-03-18T13:54:00.753Z,19.10
2023-03-18T13:57:48.927Z,19.20
2023-03-18T14:00:57.975Z,19.10
2023-03-18T14:04:44.896Z,19.10
2023-03-18T14:26:16.573Z,19.70
2023-03-18T14:38:21.776Z,20.30
2023-03-18T14:41:26.291Z,20.50
2023-03-18T14:47:43.037Z,20.70
2023-03-18T14:50:46.860Z,20.30
2023-03-18T14:57:21.818Z,19.20
2023-03-18T15:00:12.386Z,18.70
2023-03-18T15:02:52.352Z,18.40
2023-03-18T15:05:36.430Z,18.20
2023-03-18T15:08:11.628Z,17.90
2023-03-18T15:11:06.250Z,17.70
2023-03-18T15:17:17.363Z,18.20
2023-03-18T15:20:09.047Z,18.60
2023-03-18T15:23:02.922Z,18.70
2023-03-18T15:25:50.435Z,18.80
2023-03-18T15:28:45.290Z,19.00
2023-03-18T15:38:11.700Z,19.30
2023-03-18T15:41:07.436Z,19.10
2023-03-18T15:43:53.120Z,18.80
2023-03-18T15:47:04.062Z,18.50
2023-03-18T15:49:52.774Z,18.20
2023-03-18T15:56:13.338Z,17.60
2023-03-18T15:59:25.615Z,17.40
2023-03-18T16:02:26.769Z,17.30
2023-03-18T16:05:19.468Z,17.20
2023-03-18T16:11:26.112Z,17.00
2023-03-18T16:14:09.770Z,16.90
2023-03-18T16:17:14.101Z,16.70
2023-03-18T16:25:57.835Z,16.50
2023-03-18T16:28:43.243Z,16.50
2023-03-18T16:31:41.983Z,16.50
2023-03-18T16:34:21.935Z,16.40
2023-03-18T16:40:25.267Z,16.30
2023-03-18T16:43:03.986Z,16.30
2023-03-18T16:45:33.642Z,16.30
2023-03-18T16:50:50.198Z,16.20
2023-03-18T16:53:34.174Z,16.20
2023-03-18T16:56:43.369Z,16.10
2023-03-18T16:59:37.057Z,16.10
2023-03-18T17:02:51.924Z,15.90
2023-03-18T17:05:41.583Z,15.90
2023-03-18T17:08:14.468Z,15.80
2023-03-18T17:10:42.748Z,15.70
2023-03-18T17:13:28.070Z,15.60
2023-03-18T17:16:16.912Z,15.50
2023-03-18T17:18:46.278Z,15.40
2023-03-18T17:21:17.310Z,15.30
2023-03-18T17:23:44.837Z,15.20
2023-03-18T17:26:34.849Z,15.20
2023-03-18T17:29:08.737Z,15.10
2023-03-18T17:31:38.074Z,15.10
2023-03-18T17:34:13.694Z,15.00
2023-03-18T17:36:40.350Z,15.00
2023-03-18T17:39:07.574Z,14.90
2023-03-18T17:41:40.696Z,14.80
2023-03-18T17:44:34.195Z,14.80
2023-03-18T17:47:15.931Z,14.80
2023-03-18T17:50:42.817Z,14.80
2023-03-18T17:53:28.070Z,14.80
2023-03-18T17:56:14.585Z,14.70
2023-03-18T17:58:46.554Z,14.70
2023-03-18T18:01:29.177Z,14.60
2023-03-18T18:03:58.207Z,14.60
2023-03-18T18:06:27.875Z,14.50
2023-03-18T18:08:56.130Z,14.50
2023-03-18T18:11:31.102Z,14.50
2023-03-18T18:14:25.657Z,14.40
2023-03-18T18:16:55.859Z,14.40
2023-03-18T18:19:23.610Z,14.30
2023-03-18T18:21:53.169Z,14.20
2023-03-18T18:24:26.801Z,14.20
2023-03-18T18:26:55.031Z,14.10
2023-03-18T18:29:52.127Z,14.10
2023-03-18T18:32:35.412Z,14.00
2023-03-18T18:35:06.846Z,13.90
2023-03-18T18:37:48.483Z,13.80
2023-03-18T18:40:21.991Z,13.80
2023-03-18T18:42:51.592Z,13.70
2023-03-18T18:45:27.898Z,13.70
2023-03-18T18:48:12.560Z,13.60
2023-03-18T18:50:59.116Z,13.60
2023-03-18T18:53:28.851Z,13.50
2023-03-18T18:55:57.976Z,13.50
2023-03-18T18:58:31.524Z,13.50
2023-03-18T19:00:59.098Z,13.50
2023-03-18T19:03:29.972Z,13.40
2023-03-18T19:05:57.600Z,13.40
2023-03-18T19:08:50.333Z,13.40
2023-03-18T19:11:17.068Z,13.40
2023-03-18T19:13:43.827Z,13.30
2023-03-18T19:16:34.194Z,13.30
2023-03-18T19:19:01.009Z,13.30
2023-03-18T19:21:27.775Z,13.30
2023-03-18T19:23:54.497Z,13.30
2023-03-18T19:26:21.404Z,13.30
2023-03-18T19:28:57.745Z,13.30
2023-03-18T19:31:27.207Z,13.30
2023-03-18T19:33:53.986Z,13.30
2023-03-18T19:36:23.050Z,13.30
2023-03-18T19:38:50.307Z,13.20
2023-03-18T19:41:17.151Z,13.20
2023-03-18T19:43:43.856Z,13.20
2023-03-18T19:46:24.629Z,13.10
2023-03-18T19:48:51.331Z,13.20
2023-03-18T19:51:18.030Z,13.10
2023-03-18T19:53:46.512Z,13.10
2023-03-18T19:56:27.893Z,13.00
2023-03-18T19:58:57.374Z,13.00
2023-03-18T20:01:25.377Z,13.00
2023-03-18T20:03:57.622Z,13.00
2023-03-18T20:06:25.683Z,12.90
2023-03-18T20:08:52.484Z,12.90
2023-03-18T20:11:19.974Z,12.90
2023-03-18T20:13:47.576Z,12.90
2023-03-18T20:16:15.569Z,12.80
2023-03-18T20:18:42.959Z,12.80
2023-03-18T20:21:27.439Z,12.80
2023-03-18T20:23:58.804Z,12.80
2023-03-18T20:26:25.842Z,12.80
2023-03-18T20:28:52.558Z,12.80
2023-03-18T20:31:19.249Z,12.70
2023-03-18T20:33:45.980Z,12.70
2023-03-18T20:36:17.494Z,12.70
2023-03-18T20:38:47.252Z,12.70
2023-03-18T20:41:18.496Z,12.70
2023-03-18T20:43:45.965Z,12.70
2023-03-18T20:46:14.053Z,12.60
2023-03-18T20:48:41.566Z,12.60
2023-03-18T20:51:30.405Z,12.60
2023-03-18T20:53:57.327Z,12.50
2023-03-18T20:56:24.164Z,12.50
2023-03-18T20:58:51.143Z,12.40
2023-03-18T21:01:18.678Z,12.40
2023-03-18T21:03:45.689Z,12.40
2023-03-18T21:06:15.299Z,12.30
2023-03-18T21:08:51.211Z,12.30
2023-03-18T21:11:27.321Z,12.30
2023-03-18T21:13:53.996Z,12.30
2023-03-18T21:16:20.881Z,12.20
2023-03-18T21:18:47.762Z,12.20
2023-03-18T21:21:36.816Z,12.10
2023-03-18T21:24:17.438Z,12.10
2023-03-18T21:26:54.317Z,12.00
2023-03-18T21:29:29.980Z,12.00
2023-03-18T21:31:56.980Z,11.90
2023-03-18T21:34:23.736Z,11.90
2023-03-18T21:36:50.520Z,11.80
2023-03-18T21:39:17.243Z,11.80
2023-03-18T21:41:44.208Z,11.80
2023-03-18T21:44:11.113Z,11.70
2023-03-18T21:46:37.852Z,11.70
2023-03-18T21:49:04.612Z,11.60
2023-03-18T21:51:39.051Z,11.60
2023-03-18T21:54:16.564Z,11.60
2023-03-18T21:56:43.235Z,11.50
2023-03-18T21:59:09.927Z,11.50
2023-03-18T22:01:36.706Z,11.50
2023-03-18T22:04:03.522Z,11.40
2023-03-18T22:06:30.283Z,11.40
2023-03-18T22:08:57.000Z,11.40
2023-03-18T22:11:23.723Z,11.30
2023-03-18T22:13:50.598Z,11.30
2023-03-18T22:16:18.510Z,11.30
2023-03-18T22:18:46.115Z,11.20
2023-03-18T22:21:20.802Z,11.20
2023-03-18T22:23:47.515Z,11.20
2023-03-18T22:26:16.293Z,11.10
2023-03-18T22:28:44.223Z,11.10
2023-03-18T22:31:27.317Z,11.10
2023-03-18T22:33:54.230Z,11.00
2023-03-18T22:36:22.020Z,11.00
2023-03-18T22:38:49.266Z,11.00
2023-03-18T22:41:23.899Z,10.90
2023-03-18T22:43:50.879Z,10.90
2023-03-18T22:46:18.107Z,10.90
2023-03-18T22:48:45.180Z,10.80
2023-03-18T22:51:29.646Z,10.80
2023-03-18T22:53:56.442Z,10.80
2023-03-18T22:56:23.503Z,10.80
2023-03-18T22:58:50.893Z,10.80
2023-03-18T23:01:20.125Z,10.80
2023-03-18T23:03:47.142Z,10.70
2023-03-18T23:06:16.641Z,10.70
2023-03-18T23:08:43.862Z,10.70
2023-03-18T23:11:10.554Z,10.70
2023-03-18T23:13:39.590Z,10.70
2023-03-18T23:16:09.345Z,10.70
2023-03-18T23:18:36.124Z,10.70
2023-03-18T23:21:03.276Z,10.70
2023-03-18T23:23:30.035Z,10.60
2023-03-18T23:25:57.382Z,10.60
2023-03-18T23:28:24.078Z,10.50
2023-03-18T23:30:52.858Z,10.50
2023-03-18T23:33:19.917Z,10.50
2023-03-18T23:35:47.461Z,10.50
2023-03-18T23:38:14.446Z,10.40
2023-03-18T23:40:41.117Z,10.40
2023-03-18T23:43:08.009Z,10.40
2023-03-18T23:45:36.531Z,10.40
2023-03-18T23:48:03.530Z,10.40
2023-03-18T23:50:30.320Z,10.30
2023-03-18T23:52:57.077Z,10.30
2023-03-18T23:55:34.099Z,10.20
2023-03-18T23:58:10.744Z,10.20
